Weather observations for the past three days for
Grand Prairie, Grand Prairie Municipal Airport
Imperial (Metric)
Date Time (cdt) Wind (mph) Vis. (mi.) Weather Sky Cond. Temperature (ºF) Relative Humidity Wind Chill (°F) Heat Index (°F) Pressure Precipitation (in)
Air Dwpt 6 hour altimeter (in) sea level (mb) 1 hr 3 hr 6 hr
Max. Min.
01 15:35 NE 7 10.00 Mostly Cloudy SCT075 BKN110 97 61.3 31% 98 29.96 0.0
01 15:15 NE 8 10.00 Partly Cloudy SCT075 SCT100 97 62.1 32% 98 29.97 0.0
01 14:55 E 6 10.00 Partly Cloudy SCT110 97.7 61.9 31% 99 29.97 0.0
01 14:35 NE 3 10.00 Partly Cloudy SCT070 SCT110 96.6 62.6 33% 98 29.98 0.0
01 14:15 E 8 10.00 Partly Cloudy SCT060 SCT080 SCT110 97.5 62.1 31% 99 29.99 0.0
01 13:55 E 9 10.00 Overcast OVC060 98.1 63.7 32% 100 30 0.0
01 13:35 NE 9 10.00 Overcast OVC060 97 63.9 34% 99 30.01 0.0
01 13:15 SE 7 10.00 Mostly Cloudy BKN060 96.4 63.9 34% 99 30.02 0.0
01 12:55 NE 3 10.00 Partly Cloudy SCT060 SCT070 95.4 64 95.4 79.7 36% 97 30.03 0.0
01 12:35 SE 8 10.00 Partly Cloudy SCT060 94.6 64.2 37% 97 30.04 0.0
01 12:15 W 3 10.00 Fair CLR 94.1 64.4 38% 96 30.05 0.0
01 11:55 SW 6 10.00 Fair CLR 93 65.1 40% 95 30.05 0.0
01 11:35 S 6 10.00 Fair CLR 93 65.5 40% 96 30.06 0.0
01 11:15 Calm 10.00 Fair CLR 92.1 66.6 43% 95 30.06 0.0
01 10:55 S 6 10.00 Fair CLR 91.6 66.6 44% 95 30.06 0.0
01 10:35 SW 3 10.00 Fair CLR 90.5 66.7 46% 94 30.06 0.0
01 10:15 S 3 10.00 Fair CLR 89.6 68 49% 93 30.06 0.0
01 09:55 S 3 10.00 Fair CLR 88.3 68.5 52% 92 30.06 0.0
01 09:35 S 5 10.00 Fair CLR 86.5 69.1 56% 91 30.06 0.0
01 09:15 S 5 10.00 Fair CLR 86.2 69.3 57% 90 30.06 0.0
01 08:55 S 6 10.00 Partly Cloudy SCT120 84.9 69.3 60% 89 30.06 0.0
01 08:35 S 6 10.00 Partly Cloudy SCT120 83.7 69.3 62% 87 30.06 0.0
01 08:15 Calm 10.00 Fair CLR 81.9 69.1 65% 85 30.06 0.0
01 07:55 S 3 10.00 Partly Cloudy SCT120 81.1 68.9 66% 84 30.05 0.0
01 07:35 Calm 10.00 Partly Cloudy SCT120 80.1 68.5 68% 83 30.05 0.0
01 07:15 Calm 10.00 Partly Cloudy SCT110 79.9 68.2 68% 82 30.04 0.0
01 06:55 Calm 10.00 Partly Cloudy SCT110 81 67.5 87.4 80.6 64% 84 30.03 0.0
01 06:35 Calm 10.00 Fair CLR 81.5 67.5 63% 84 30.03 0.0
01 06:15 Calm 10.00 Fair CLR 80.6 66.9 63% 83 30.03 0.0
01 05:55 Calm 10.00 Fair CLR 80.8 66.4 62% 83 30.02 0.0
01 05:35 Calm 10.00 Fair CLR 81.9 66.4 60% 84 30.02 0.0
01 05:15 Calm 10.00 Fair CLR 82.4 66.6 59% 85 30.02 0.0
01 04:55 S 3 10.00 Fair CLR 82.9 66.6 58% 85 30.02 0.0
01 04:35 S 3 10.00 Fair CLR 83.5 66.4 56% 86 30.02 0.0
01 04:15 S 5 10.00 Fair CLR 84.2 66.4 55% 87 30.02 0.0
01 03:55 SW 6 10.00 Partly Cloudy SCT100 84.7 66.6 55% 87 30.02 0.0
01 03:35 S 7 10.00 Partly Cloudy SCT100 85.1 66.4 54% 88 30.02 0.0
01 03:15 S 6 10.00 Fair CLR 84.9 65.5 52% 87 30.02 0.0
01 02:55 S 6 10.00 Fair CLR 85.1 64.6 50% 87 30.02 0.0
01 02:35 S 5 10.00 Partly Cloudy SCT090 85.5 64 49% 87 30.02 0.0
01 02:15 S 6 10.00 Partly Cloudy SCT090 86.2 63.7 47% 87 30.01 0.0
01 01:55 SE 5 10.00 Partly Cloudy SCT080 86.4 63.5 47% 87 30.01 0.0
01 01:35 S 5 10.00 Partly Cloudy SCT080 86.9 62.6 44% 88 30 0.0
01 01:15 SE 6 10.00 Fair CLR 87.1 61.2 42% 87 30 0.0
01 00:55 SE 5 10.00 Fair CLR 87.4 60.4 98.1 85.6 40% 87 29.99 0.0
01 00:35 SE 5 10.00 Fair CLR 86.9 59.2 39% 86 29.99 0.0
01 00:15 SE 3 10.00 Fair CLR 86.5 59.2 40% 86 29.98 0.0
31 23:55 E 3 10.00 Fair CLR 86.2 59.4 40% 86 29.98 0.0
31 23:35 Calm 10.00 Fair CLR 87.8 58.1 37% 87 29.98 0.0
31 23:15 Calm 10.00 Fair CLR 88.3 57.9 36% 87 29.98 0.0
31 22:55 Calm 10.00 Fair CLR 88 57.4 36% 87 29.98 0.0
31 22:35 Calm 10.00 Fair CLR 88.7 56.8 34% 87 29.98 0.0
31 22:15 Calm 10.00 Fair CLR 90.5 56.1 31% 89 29.98 0.0
31 21:55 Calm 10.00 Fair CLR 90 55.6 31% 88 29.97 0.0
31 21:35 SE 3 10.00 Fair CLR 91.4 54.9 29% 89 29.97 0.0
31 21:15 SE 3 10.00 Fair CLR 91.9 55.2 29% 90 29.96 0.0
31 20:55 SE 3 10.00 Fair CLR 92.7 55.6 29% 91 29.95 0.0
31 20:35 SE 5 10.00 Fair CLR 93.4 56.3 29% 92 29.95 0.0
31 20:15 SE 3 10.00 Fair CLR 94.3 56.1 28% 93 29.95 0.0
31 19:55 SE 7 10.00 Fair CLR 95.9 55.8 26% 94 29.94 0.0
31 19:35 SE 8 10.00 Fair CLR 96.6 55.4 25% 95 29.94 0.0
31 19:15 S 8 10.00 Fair CLR 97.5 54.5 24% 96 29.94 0.0
31 18:35 SE 8 10.00 Fair CLR 98.6 54.9 23% 97 29.94 0.0
31 18:15 SE 7 G 16 10.00 Fair CLR 98.6 55 23% 97 29.94 0.0
31 17:55 SE 8 10.00 Fair CLR 99.5 55.6 23% 98 29.95 0.0
31 17:35 SE 10 10.00 Partly Cloudy SCT110 97.7 55.6 24% 96 29.95 0.0
31 17:15 S 9 10.00 Partly Cloudy SCT110 98.4 55.6 24% 97 29.95 0.0
31 16:55 SE 10 10.00 Partly Cloudy SCT110 100.9 55.6 22% 100 29.95 0.0
31 16:35 SE 8 G 17 10.00 Partly Cloudy SCT100 100.9 56.1 23% 100 29.96 0.0
31 16:15 S 6 G 13 10.00 Fair CLR 100.2 55.4 22% 99 29.97 0.0
31 15:55 SE 10 G 20 10.00 Partly Cloudy SCT100 99.9 57.4 24% 99 29.97 0.0
31 15:15 SE 6 10.00 Fair CLR 100 57.2 24% 99 29.99 0.0
31 14:55 SE 9 10.00 Partly Cloudy SCT095 99.5 57.9 25% 99 29.99 0.0
31 14:35 S 8 10.00 Partly Cloudy SCT085 99.5 57.4 25% 99 30.01 0.0
31 14:15 S 12 G 17 10.00 Partly Cloudy SCT085 99.3 57.6 25% 99 30.01 0.0
31 13:55 S 7 10.00 Partly Cloudy SCT075 98.2 57.4 26% 97 30.02 0.0
31 13:35 SE 7 G 18 10.00 Fair CLR 97.7 60.4 29% 98 30.02 0.0
31 13:15 S 8 10.00 Fair CLR 97.7 60.8 30% 98 30.03 0.0
31 12:55 S 9 10.00 Fair CLR 96.4 60.8 96.4 79.7 31% 97 30.04 0.0
31 12:35 S 7 10.00 Fair CLR 96.4 60.8 31% 97 30.05 0.0
31 12:15 S 9 10.00 Fair CLR 95.4 60.4 31% 95 30.06 0.0
31 11:55 S 7 10.00 Fair CLR 94.1 60.4 33% 94 30.06 0.0
31 11:35 SE 8 10.00 Fair CLR 92.5 61.2 35% 93 30.06 0.0
31 11:15 SE 9 10.00 Fair CLR 92.5 61.5 36% 93 30.06 0.0
31 10:55 S 5 10.00 Fair CLR 90.9 62.8 39% 92 30.06 0.0
31 10:35 S 6 10.00 Fair CLR 90.3 64.6 43% 92 30.06 0.0
31 10:15 SW 6 10.00 Fair CLR 89.1 64.8 45% 91 30.06 0.0
31 09:55 SW 7 10.00 Fair CLR 87.3 66 49% 90 30.06 0.0
31 09:35 SW 8 10.00 Fair CLR 86 67.1 53% 89 30.05 0.0
31 09:15 S 5 10.00 Fair CLR 84.9 67.8 57% 88 30.05 0.0
31 08:55 SW 7 10.00 Fair CLR 83.3 68.5 61% 87 30.05 0.0
31 08:35 S 6 10.00 Fair CLR 81.5 68.5 65% 85 30.05 0.0
31 08:15 S 6 10.00 Fair CLR 81.3 68.7 66% 84 30.04 0.0
31 07:55 S 6 10.00 Fair CLR 80.2 68 66% 83 30.03 0.0
31 07:35 SW 7 10.00 Fair CLR 80.1 67.8 66% 83 30.02 0.0
31 07:15 SW 6 10.00 Fair CLR 79.7 67.5 66% 82 30.01 0.0
31 06:55 S 5 10.00 Fair CLR 79.7 67.1 86 79.5 65% 82 30.01 0.0
31 06:35 S 5 10.00 Fair CLR 79.7 66.7 65% 82 30 0.0
31 06:15 S 5 10.00 Fair CLR 79.7 66.4 64% 82 30 0.0
31 05:55 S 5 10.00 Fair CLR 80.1 65.8 62% 82 29.99 0.0
31 05:35 S 3 10.00 Fair CLR 80.6 65.3 60% 83 30 0.0
31 05:15 S 5 10.00 Fair CLR 81 65.1 59% 83 29.99 0.0
31 04:55 S 6 10.00 Partly Cloudy SCT095 81.3 64.6 57% 83 29.99 0.0
31 04:15 S 7 10.00 Partly Cloudy SCT095 82.4 63.9 54% 84 29.99 0.0
31 03:55 S 7 10.00 Mostly Cloudy BKN095 82.9 63.5 52% 84 29.99 0.0
31 03:35 SW 7 10.00 Fair CLR 83.3 62.8 50% 84 29.98 0.0
31 03:15 SW 7 10.00 Fair CLR 83.8 62.4 49% 85 29.98 0.0
31 02:55 S 5 10.00 Fair CLR 84.2 61.9 47% 85 29.98 0.0
31 02:35 S 7 10.00 Fair CLR 84.7 61.3 45% 85 29.98 0.0
31 02:15 S 8 10.00 Fair CLR 85.1 61 44% 85 29.98 0.0
31 01:55 S 6 10.00 Fair CLR 85.5 60.4 43% 85 29.98 0.0
31 01:35 S 6 10.00 Fair CLR 86 60.3 42% 86 29.98 0.0
31 01:15 S 3 10.00 Fair CLR 86 60.8 43% 86 29.98 0.0
31 00:55 S 5 10.00 Fair CLR 86 61.3 97.7 86 44% 86 29.98 0.0
31 00:35 S 3 10.00 Fair CLR 86.4 61.3 43% 87 29.98 0.0
31 00:15 S 3 10.00 Fair CLR 86.5 61.7 43% 87 29.98 0.0
30 23:55 Calm 10.00 Fair CLR 86.7 61.7 43% 87 29.97 0.0
30 23:35 S 3 10.00 Fair CLR 87.6 61.7 42% 88 29.97 0.0
30 23:15 S 5 10.00 Fair CLR 88.3 61.3 40% 88 29.97 0.0
30 22:55 Calm 10.00 Fair CLR 89.2 61.3 39% 89 29.97 0.0
30 22:35 SE 3 10.00 Fair CLR 89.6 61 38% 90 29.96 0.0
30 22:15 SE 3 10.00 Fair CLR 90 60.4 37% 90 29.96 0.0
30 21:55 Calm 10.00 Fair CLR 90.7 59.9 36% 90 29.95 0.0
30 21:35 SE 5 10.00 Fair CLR 91.4 59.9 35% 91 29.95 0.0
30 21:15 SE 6 10.00 Fair CLR 91.9 60.1 34% 92 29.94 0.0
30 20:55 SE 5 10.00 Fair CLR 92.8 59.7 33% 92 29.93 0.0
30 20:35 S 5 10.00 Fair CLR 93.4 59.4 32% 93 29.92 0.0
30 20:15 SE 5 10.00 Fair CLR 94.5 59 31% 94 29.92 0.0
30 19:55 SE 7 10.00 Partly Cloudy SCT085 95.4 58.6 29% 95 29.92 0.0
30 19:35 S 6 10.00 Fair CLR 96.8 56.7 26% 96 29.91 0.0
30 19:15 S 8 10.00 Fair CLR 97.5 56.3 25% 96 29.92 0.0
30 18:55 S 7 10.00 Fair CLR 97.9 55.6 101.1 97.5 24% 96 29.92 0.0
30 18:35 SE 8 10.00 Fair CLR 98.8 55.4 23% 97 29.92 0.0
30 18:15 S 8 10.00 Fair CLR 99.1 55.9 24% 98 29.92 0.0
30 17:55 SE 8 10.00 Fair CLR 98.2 56.7 25% 97 29.92 0.0
30 17:35 SE 8 G 17 10.00 Partly Cloudy SCT090 99.5 56.3 24% 98 29.92 0.0
30 17:15 S 8 10.00 Fair CLR 100.6 54.1 21% 99 29.93 0.0
30 16:55 S 9 10.00 Fair CLR 100 53.8 21% 98 29.93 0.0
30 16:35 SE 10 10.00 Fair CLR 100.6 53.8 21% 99 29.93 0.0
30 16:15 S 7 G 17 10.00 Fair CLR 100.4 54.5 22% 99 29.94 0.0
30 15:55 S 8 G 16 10.00 Fair CLR 100.2 54.7 22% 99 29.95 0.0
30 15:35 SE 12 10.00 Fair CLR 99.9 55.8 23% 99 29.95 0.0
30 15:15 SE 7 10.00 Fair CLR 100 56.3 23% 99 29.96 0.0
30 14:55 S 12 10.00 Fair CLR 100.2 56.5 23% 99 29.97 0.0
30 14:35 SE 8 10.00 Fair CLR 99.3 57.4 25% 99 29.98 0.0
30 14:15 S 10 G 16 10.00 Fair CLR 99.3 57.4 25% 99 29.98 0.0
30 13:55 S 9 10.00 Fair CLR 98.8 58.6 26% 98 29.99 0.0
30 13:35 S 9 10.00 Fair CLR 98.4 58.3 26% 98 30 0.0
30 13:15 S 8 G 18 10.00 Fair CLR 97.7 58.5 27% 97 30.01 0.0
30 12:55 S 6 G 10 10.00 Fair CLR 97.9 59.7 98.1 78.4 28% 98 30.02 0.0
30 12:35 S 7 G 16 10.00 Fair CLR 96.8 60.1 30% 97 30.03 0.0
30 12:15 S 10 10.00 Fair CLR 95.7 60.3 31% 96 30.03 0.0
30 11:55 S 10 G 17 10.00 Fair CLR 95.2 60.8 32% 95 30.04 0.0
30 11:35 SW 8 10.00 Fair CLR 94.3 62.6 35% 95 30.05 0.0
30 11:15 S 6 10.00 Fair CLR 92.8 64 39% 95 30.05 0.0
30 10:55 SW 10 10.00 Fair CLR 91.9 64.4 40% 94 30.05 0.0
30 10:35 S 10 10.00 Fair CLR 90.7 65.5 43% 93 30.05 0.0
30 10:15 SW 8 10.00 Fair CLR 88.9 66.9 48% 92 30.05 0.0
30 09:55 SW 7 10.00 Fair CLR 87.6 67.1 51% 91 30.05 0.0
30 09:35 S 6 10.00 Fair CLR 86.4 67.1 53% 89 30.05 0.0
30 09:15 S 6 10.00 Fair CLR 84.6 68 58% 88 30.05 0.0
30 08:55 S 7 10.00 Fair CLR 83.1 68.4 61% 86 30.05 0.0
30 08:35 S 5 10.00 Fair CLR 82 68 63% 85 30.05 0.0
30 08:15 S 3 10.00 Fair CLR 80.6 68 66% 83 30.04 0.0
30 07:55 S 3 10.00 Fair CLR 79.7 67.6 67% 82 30.03 0.0
30 07:35 Calm 10.00 Fair CLR 78.8 67.1 67% 81 30.03 0.0
30 07:15 S 3 10.00 Fair CLR 78.4 66.7 67% 80 30.02 0.0
30 06:55 S 3 10.00 Fair CLR 78.8 66.7 87.1 78.8 67% 81 30.01 0.0
30 06:35 S 3 10.00 Fair CLR 79.2 66.6 65% 81 30 0.0
30 06:15 S 3 10.00 Fair CLR 79.7 66.4 64% 82 30 0.0
30 05:55 S 3 10.00 Fair CLR 79.7 66 63% 82 29.99 0.0
30 05:35 S 3 10.00 Fair CLR 80.1 65.5 61% 82 29.99 0.0
30 05:15 S 5 10.00 Fair CLR 80.6 65.3 60% 83 29.99 0.0
30 04:55 S 5 10.00 Fair CLR 80.8 64.8 58% 83 29.99 0.0
30 04:35 S 5 10.00 Fair CLR 81 64.8 58% 83 29.98 0.0
30 04:15 S 3 10.00 Fair CLR 82 64.4 55% 84 29.99 0.0
30 03:55 S 5 10.00 Fair CLR 83.3 64.4 53% 85 29.99 0.0
30 03:35 SW 7 10.00 Fair CLR 84.2 63.9 51% 85 29.98 0.0
30 03:15 S 6 10.00 Fair CLR 84.6 63.5 49% 86 29.98 0.0
30 02:55 SW 6 10.00 Fair CLR 84.7 62.6 47% 86 29.99 0.0
30 02:35 SW 5 10.00 Fair CLR 85.1 62.2 46% 86 29.99 0.0
30 02:15 S 5 10.00 Fair CLR 85.5 61.9 45% 86 29.98 0.0
30 01:55 S 5 10.00 Fair CLR 86 61.7 44% 86 29.99 0.0
30 01:35 S 3 10.00 Fair CLR 86 61.7 44% 86 29.99 0.0
30 01:15 S 5 10.00 Fair CLR 86.5 61.3 43% 87 29.99 0.0
30 00:55 S 3 10.00 Fair CLR 87.1 61.3 99.1 87.1 42% 87 29.99 0.0
30 00:35 Calm 10.00 Fair CLR 87.4 60.6 41% 87 29.99 0.0
30 00:15 S 3 10.00 Fair CLR 87.8 60.8 40% 88 29.99 0.0
29 23:55 S 5 10.00 Fair CLR 88.7 60.4 39% 88 29.99 0.0
29 23:35 S 3 10.00 Fair CLR 89.1 59.5 37% 88 29.99 0.0
29 23:15 S 3 10.00 Fair CLR 89.4 59.2 36% 89 29.99 0.0
29 22:55 S 5 10.00 Fair CLR 90 59 35% 89 29.98 0.0
29 22:35 S 5 10.00 Fair CLR 90.5 59.5 35% 90 29.98 0.0
29 22:15 S 3 10.00 Fair CLR 91 59.5 35% 90 29.98 0.0
29 21:55 S 5 10.00 Fair CLR 91.4 60.3 35% 91 29.97 0.0
29 21:35 SE 3 10.00 Fair CLR 92.3 60.1 34% 92 29.97 0.0
29 21:15 SE 5 10.00 Fair CLR 92.8 59.9 33% 92 29.96 0.0
29 20:55 SE 6 10.00 Partly Cloudy SCT100 93.6 59.7 32% 93 29.95 0.0
29 20:35 SE 7 10.00 Partly Cloudy SCT100 94.6 59 30% 94 29.95 0.0
29 20:15 SE 7 10.00 Partly Cloudy SCT100 95.5 58.3 29% 95 29.95 0.0
29 19:55 SE 6 10.00 Partly Cloudy SCT100 96.8 57.6 27% 96 29.94 0.0
29 19:35 S 6 10.00 Mostly Cloudy BKN090 BKN110 97.9 57 26% 97 29.94 0.0
29 19:15 S 7 10.00 Partly Cloudy SCT090 SCT110 99 56.3 24% 98 29.94 0.0
29 18:55 S 6 10.00 Fair CLR 99.1 55.9 102.4 97 24% 98 29.95 0.0
29 18:35 SE 7 10.00 Fair CLR 99.3 55.4 23% 98 29.95 0.0
29 18:15 S 8 10.00 Fair CLR 99 55.6 23% 97 29.95 0.0
29 17:55 SE 7 10.00 Partly Cloudy SCT095 100.8 56.1 23% 100 29.94 0.0
29 17:35 S 6 10.00 Fair CLR 101.5 53.4 20% 99 29.95 0.0
29 17:15 S 6 10.00 Fair CLR 102.2 53.6 20% 100 29.95 0.0
29 16:55 S 7 10.00 Fair CLR 101.8 54.7 21% 100 29.96 0.0
29 16:35 E 5 10.00 Partly Cloudy SCT090 101.5 54.7 21% 100 29.96 0.0
29 16:15 SE 8 10.00 Partly Cloudy SCT090 101.1 55.4 22% 100 29.97 0.0
29 15:55 SE 8 10.00 Fair CLR 100.9 56.3 23% 100 29.98 0.0
Date Time (cdt) Wind (mph) Vis. (mi.) Weather Sky Cond. Air Dwpt Max. Min. Relative Humidity Wind Chill (°F) Heat Index (°F) altimeter (in) sea level (mb) 1 hr 3 hr 6 hr
6 hour
Temperature (ºF) Pressure Precipitation (in)